sensor_id;sensor_type;location;lat;lon;timestamp;pressure;altitude;pressure_sealevel;temperature;humidity
52923;BME280;38796;42.702;23.306;2023-02-08T00:01:26;96841.38;;;-6.28;79.79
52923;BME280;38796;42.702;23.306;2023-02-08T00:03:24;96851.66;;;-6.24;79.76
52923;BME280;38796;42.702;23.306;2023-02-08T00:05:23;96844.81;;;-6.24;79.73
52923;BME280;38796;42.702;23.306;2023-02-08T00:07:22;96843.13;;;-6.22;79.62
52923;BME280;38796;42.702;23.306;2023-02-08T00:09:21;96846.56;;;-6.23;79.52
52923;BME280;38796;42.702;23.306;2023-02-08T00:11:20;96852.50;;;-6.25;79.79
52923;BME280;38796;42.702;23.306;2023-02-08T00:13:19;96849.09;;;-6.26;79.90
52923;BME280;38796;42.702;23.306;2023-02-08T00:15:18;96853.38;;;-6.26;79.86
52923;BME280;38796;42.702;23.306;2023-02-08T00:17:16;96866.19;;;-6.30;79.95
52923;BME280;38796;42.702;23.306;2023-02-08T00:19:15;96856.78;;;-6.31;79.98
52923;BME280;38796;42.702;23.306;2023-02-08T00:21:14;96856.78;;;-6.31;80.08
52923;BME280;38796;42.702;23.306;2023-02-08T00:23:13;96855.91;;;-6.30;79.91
52923;BME280;38796;42.702;23.306;2023-02-08T00:25:12;96862.75;;;-6.24;80.13
52923;BME280;38796;42.702;23.306;2023-02-08T00:27:10;96867.88;;;-6.24;80.08
52923;BME280;38796;42.702;23.306;2023-02-08T00:29:10;96862.81;;;-6.16;79.66
52923;BME280;38796;42.702;23.306;2023-02-08T00:31:08;96869.63;;;-6.18;79.65
52923;BME280;38796;42.702;23.306;2023-02-08T00:33:07;96869.63;;;-6.21;79.44
52923;BME280;38796;42.702;23.306;2023-02-08T00:35:06;96873.88;;;-6.26;79.64
52923;BME280;38796;42.702;23.306;2023-02-08T00:37:05;96871.34;;;-6.23;79.83
52923;BME280;38796;42.702;23.306;2023-02-08T00:39:03;96878.16;;;-6.25;79.52
52923;BME280;38796;42.702;23.306;2023-02-08T00:41:01;96877.28;;;-6.24;79.59
52923;BME280;38796;42.702;23.306;2023-02-08T00:43:00;96883.31;;;-6.16;79.44
52923;BME280;38796;42.702;23.306;2023-02-08T00:45:00;96884.16;;;-6.14;79.25
52923;BME280;38796;42.702;23.306;2023-02-08T00:46:58;96886.75;;;-6.16;79.54
52923;BME280;38796;42.702;23.306;2023-02-08T00:48:57;96886.72;;;-6.17;79.47
52923;BME280;38796;42.702;23.306;2023-02-08T00:51:00;96885.88;;;-6.19;79.35
52923;BME280;38796;42.702;23.306;2023-02-08T00:52:58;96891.84;;;-6.22;79.36
52923;BME280;38796;42.702;23.306;2023-02-08T00:54:57;96888.44;;;-6.18;79.54
52923;BME280;38796;42.702;23.306;2023-02-08T00:56:58;96888.44;;;-6.19;79.38
52923;BME280;38796;42.702;23.306;2023-02-08T00:58:56;96886.72;;;-6.22;79.62
52923;BME280;38796;42.702;23.306;2023-02-08T01:00:56;96881.59;;;-6.23;79.61
52923;BME280;38796;42.702;23.306;2023-02-08T01:02:54;96889.28;;;-6.23;79.56
52923;BME280;38796;42.702;23.306;2023-02-08T01:04:53;96893.53;;;-6.24;79.83
52923;BME280;38796;42.702;23.306;2023-02-08T01:06:51;96887.53;;;-6.28;80.00
52923;BME280;38796;42.702;23.306;2023-02-08T01:08:49;96894.41;;;-6.20;80.24
52923;BME280;38796;42.702;23.306;2023-02-08T01:10:48;96898.69;;;-6.15;80.09
52923;BME280;38796;42.702;23.306;2023-02-08T01:12:46;96886.75;;;-6.13;79.64
52923;BME280;38796;42.702;23.306;2023-02-08T01:14:44;96899.56;;;-6.14;79.84
52923;BME280;38796;42.702;23.306;2023-02-08T01:16:44;96892.75;;;-6.12;79.96
52923;BME280;38796;42.702;23.306;2023-02-08T01:18:44;96897.00;;;-6.16;80.41
52923;BME280;38796;42.702;23.306;2023-02-08T01:20:43;96891.84;;;-6.22;80.25
52923;BME280;38796;42.702;23.306;2023-02-08T01:22:41;96891.00;;;-6.16;80.62
52923;BME280;38796;42.702;23.306;2023-02-08T01:24:39;96880.78;;;-6.12;80.62
52923;BME280;38796;42.702;23.306;2023-02-08T01:26:38;96887.59;;;-6.12;80.56
52923;BME280;38796;42.702;23.306;2023-02-08T01:28:37;96890.19;;;-6.09;80.57
52923;BME280;38796;42.702;23.306;2023-02-08T01:30:37;96885.03;;;-6.11;80.41
52923;BME280;38796;42.702;23.306;2023-02-08T01:32:38;96888.47;;;-6.09;80.80
52923;BME280;38796;42.702;23.306;2023-02-08T01:34:37;96891.06;;;-5.81;81.30
52923;BME280;38796;42.702;23.306;2023-02-08T01:36:36;96884.28;;;-5.65;79.51
52923;BME280;38796;42.702;23.306;2023-02-08T01:38:37;96894.47;;;-5.81;79.53
52923;BME280;38796;42.702;23.306;2023-02-08T01:40:35;96884.22;;;-5.87;79.81
52923;BME280;38796;42.702;23.306;2023-02-08T01:42:34;96884.22;;;-5.91;79.82
52923;BME280;38796;42.702;23.306;2023-02-08T01:45:18;96891.06;;;-5.96;80.06
52923;BME280;38796;42.702;23.306;2023-02-08T01:47:19;96887.63;;;-6.03;80.13
52923;BME280;38796;42.702;23.306;2023-02-08T01:49:22;96892.75;;;-6.05;80.31
52923;BME280;38796;42.702;23.306;2023-02-08T01:51:25;96885.03;;;-6.06;80.34
52923;BME280;38796;42.702;23.306;2023-02-08T01:53:26;96891.06;;;-6.06;80.37
52923;BME280;38796;42.702;23.306;2023-02-08T01:55:29;96893.63;;;-6.06;80.80
52923;BME280;38796;42.702;23.306;2023-02-08T01:57:29;96894.47;;;-5.99;80.66
52923;BME280;38796;42.702;23.306;2023-02-08T01:59:35;96898.78;;;-5.98;80.89
52923;BME280;38796;42.702;23.306;2023-02-08T02:01:37;96894.47;;;-5.96;80.37
52923;BME280;38796;42.702;23.306;2023-02-08T02:03:37;96899.59;;;-5.96;80.59
52923;BME280;38796;42.702;23.306;2023-02-08T02:05:41;96900.47;;;-6.01;80.68
52923;BME280;38796;42.702;23.306;2023-02-08T02:07:39;96904.69;;;-6.07;81.11
52923;BME280;38796;42.702;23.306;2023-02-08T02:09:43;96902.16;;;-6.08;81.23
52923;BME280;38796;42.702;23.306;2023-02-08T02:11:42;96901.28;;;-6.07;81.23
52923;BME280;38796;42.702;23.306;2023-02-08T02:13:41;96904.72;;;-6.03;81.34
52923;BME280;38796;42.702;23.306;2023-02-08T02:15:41;96907.28;;;-6.03;81.36
52923;BME280;38796;42.702;23.306;2023-02-08T02:17:40;96909.00;;;-6.09;81.49
52923;BME280;38796;42.702;23.306;2023-02-08T02:19:48;96918.38;;;-6.12;81.69
52923;BME280;38796;42.702;23.306;2023-02-08T02:22:01;96914.97;;;-6.11;81.63
52923;BME280;38796;42.702;23.306;2023-02-08T02:24:30;96914.97;;;-6.13;82.09
52923;BME280;38796;42.702;23.306;2023-02-08T02:29:25;96924.38;;;-6.07;82.52
52923;BME280;38796;42.702;23.306;2023-02-08T02:31:56;96932.09;;;-6.01;82.84
52923;BME280;38796;42.702;23.306;2023-02-08T02:34:02;96928.69;;;-5.91;82.43
52923;BME280;38796;42.702;23.306;2023-02-08T02:36:08;96942.38;;;-5.95;82.59
52923;BME280;38796;42.702;23.306;2023-02-08T02:38:15;96937.22;;;-6.01;82.78
52923;BME280;38796;42.702;23.306;2023-02-08T02:40:21;96930.38;;;-6.05;82.78
52923;BME280;38796;42.702;23.306;2023-02-08T02:42:27;96934.63;;;-6.09;83.00
52923;BME280;38796;42.702;23.306;2023-02-08T02:44:52;96931.19;;;-6.12;83.40
52923;BME280;38796;42.702;23.306;2023-02-08T02:47:01;96936.31;;;-6.12;83.43
52923;BME280;38796;42.702;23.306;2023-02-08T02:49:07;96937.16;;;-6.19;83.68
52923;BME280;38796;42.702;23.306;2023-02-08T02:51:12;96936.28;;;-6.18;84.14
52923;BME280;38796;42.702;23.306;2023-02-08T02:53:18;96938.00;;;-6.19;84.00
52923;BME280;38796;42.702;23.306;2023-02-08T02:55:21;96937.16;;;-6.19;84.50
52923;BME280;38796;42.702;23.306;2023-02-08T02:57:25;96936.25;;;-6.24;85.28
52923;BME280;38796;42.702;23.306;2023-02-08T02:59:25;96933.69;;;-6.24;85.52
52923;BME280;38796;42.702;23.306;2023-02-08T03:01:24;96937.13;;;-6.25;86.26
52923;BME280;38796;42.702;23.306;2023-02-08T03:03:26;96937.13;;;-6.27;86.42
52923;BME280;38796;42.702;23.306;2023-02-08T03:05:25;96944.78;;;-6.30;86.58
52923;BME280;38796;42.702;23.306;2023-02-08T03:07:35;96949.06;;;-6.31;86.81
52923;BME280;38796;42.702;23.306;2023-02-08T03:09:46;96952.44;;;-6.35;87.06
52923;BME280;38796;42.702;23.306;2023-02-08T03:11:55;96952.44;;;-6.35;86.89
52923;BME280;38796;42.702;23.306;2023-02-08T03:14:33;96960.06;;;-6.48;86.33
52923;BME280;38796;42.702;23.306;2023-02-08T03:16:47;96961.84;;;-6.35;86.07
52923;BME280;38796;42.702;23.306;2023-02-08T03:19:01;96951.53;;;-6.46;85.26
52923;BME280;38796;42.702;23.306;2023-02-08T03:21:08;96954.03;;;-6.58;85.36
52923;BME280;38796;42.702;23.306;2023-02-08T03:23:14;96957.31;;;-6.79;86.37
52923;BME280;38796;42.702;23.306;2023-02-08T03:25:19;96953.81;;;-6.89;86.70
52923;BME280;38796;42.702;23.306;2023-02-08T03:27:23;96948.69;;;-6.92;87.33
52923;BME280;38796;42.702;23.306;2023-02-08T03:29:28;96939.25;;;-6.99;87.85
52923;BME280;38796;42.702;23.306;2023-02-08T03:31:32;96946.06;;;-6.96;88.11
52923;BME280;38796;42.702;23.306;2023-02-08T03:33:39;96940.88;;;-7.07;88.36
52923;BME280;38796;42.702;23.306;2023-02-08T03:35:44;96949.38;;;-7.11;89.09
52923;BME280;38796;42.702;23.306;2023-02-08T03:37:50;96951.03;;;-7.18;89.23
52923;BME280;38796;42.702;23.306;2023-02-08T03:39:52;96946.75;;;-7.20;89.75
52923;BME280;38796;42.702;23.306;2023-02-08T03:41:56;96950.97;;;-7.27;90.02
52923;BME280;38796;42.702;23.306;2023-02-08T03:43:58;96952.63;;;-7.31;89.92
52923;BME280;38796;42.702;23.306;2023-02-08T03:46:02;96945.88;;;-7.24;90.15
52923;BME280;38796;42.702;23.306;2023-02-08T03:48:05;96958.59;;;-7.30;90.03
52923;BME280;38796;42.702;23.306;2023-02-08T03:50:09;96954.31;;;-7.33;90.36
52923;BME280;38796;42.702;23.306;2023-02-08T03:52:10;96948.28;;;-7.39;90.57
52923;BME280;38796;42.702;23.306;2023-02-08T03:54:11;96946.56;;;-7.42;90.65
52923;BME280;38796;42.702;23.306;2023-02-08T03:56:16;96947.34;;;-7.47;91.09
52923;BME280;38796;42.702;23.306;2023-02-08T03:58:19;96950.72;;;-7.53;91.60
52923;BME280;38796;42.702;23.306;2023-02-08T04:00:20;96953.28;;;-7.53;91.85
52923;BME280;38796;42.702;23.306;2023-02-08T04:02:22;96955.00;;;-7.52;91.98
52923;BME280;38796;42.702;23.306;2023-02-08T04:04:24;96954.13;;;-7.53;92.51
52923;BME280;38796;42.702;23.306;2023-02-08T04:06:24;96960.09;;;-7.52;92.85
52923;BME280;38796;42.702;23.306;2023-02-08T04:08:24;96960.94;;;-7.56;92.94
52923;BME280;38796;42.702;23.306;2023-02-08T04:10:23;96965.16;;;-7.58;93.08
52923;BME280;38796;42.702;23.306;2023-02-08T04:12:21;96968.56;;;-7.59;93.54
52923;BME280;38796;42.702;23.306;2023-02-08T04:14:19;96971.13;;;-7.58;93.90
52923;BME280;38796;42.702;23.306;2023-02-08T04:16:17;96964.31;;;-7.59;93.42
52923;BME280;38796;42.702;23.306;2023-02-08T04:18:16;96966.81;;;-7.62;93.65
52923;BME280;38796;42.702;23.306;2023-02-08T04:20:14;96971.94;;;-7.63;93.26
52923;BME280;38796;42.702;23.306;2023-02-08T04:22:12;96973.63;;;-7.62;93.25
52923;BME280;38796;42.702;23.306;2023-02-08T04:24:12;96975.34;;;-7.64;93.14
52923;BME280;38796;42.702;23.306;2023-02-08T04:26:10;96980.41;;;-7.67;92.41
52923;BME280;38796;42.702;23.306;2023-02-08T04:28:09;96970.94;;;-7.76;91.53
52923;BME280;38796;42.702;23.306;2023-02-08T04:30:08;96973.44;;;-7.82;91.65
52923;BME280;38796;42.702;23.306;2023-02-08T04:32:06;96987.84;;;-7.87;91.54
52923;BME280;38796;42.702;23.306;2023-02-08T04:34:07;96981.00;;;-7.90;91.59
52923;BME280;38796;42.702;23.306;2023-02-08T04:36:06;96974.94;;;-7.98;91.41
52923;BME280;38796;42.702;23.306;2023-02-08T04:38:04;96974.91;;;-8.01;91.82
52923;BME280;38796;42.702;23.306;2023-02-08T04:40:04;96975.72;;;-8.05;91.53
52923;BME280;38796;42.702;23.306;2023-02-08T04:42:03;96980.81;;;-8.07;91.60
52923;BME280;38796;42.702;23.306;2023-02-08T04:44:01;96974.78;;;-8.12;91.67
52923;BME280;38796;42.702;23.306;2023-02-08T04:45:59;96991.00;;;-8.10;91.60
52923;BME280;38796;42.702;23.306;2023-02-08T04:48:00;96982.44;;;-8.15;91.39
52923;BME280;38796;42.702;23.306;2023-02-08T04:49:59;96983.25;;;-8.16;91.87
52923;BME280;38796;42.702;23.306;2023-02-08T04:51:57;96996.06;;;-8.14;91.75
52923;BME280;38796;42.702;23.306;2023-02-08T04:53:56;97001.13;;;-8.17;91.42
52923;BME280;38796;42.702;23.306;2023-02-08T04:55:55;96999.44;;;-8.18;91.45
52923;BME280;38796;42.702;23.306;2023-02-08T04:57:54;96992.63;;;-8.18;91.82
52923;BME280;38796;42.702;23.306;2023-02-08T04:59:52;97005.34;;;-8.19;91.32
52923;BME280;38796;42.702;23.306;2023-02-08T05:01:50;97016.59;;;-8.07;91.92
52923;BME280;38796;42.702;23.306;2023-02-08T05:03:49;97016.69;;;-7.99;91.98
52923;BME280;38796;42.702;23.306;2023-02-08T05:05:55;97022.81;;;-7.89;91.83
52923;BME280;38796;42.702;23.306;2023-02-08T05:07:54;97027.97;;;-7.83;91.11
52923;BME280;38796;42.702;23.306;2023-02-08T05:09:53;97042.38;;;-7.90;90.70
52923;BME280;38796;42.702;23.306;2023-02-08T05:11:52;97029.56;;;-7.91;90.74
52923;BME280;38796;42.702;23.306;2023-02-08T05:13:51;97034.63;;;-7.96;90.76
52923;BME280;38796;42.702;23.306;2023-02-08T05:15:49;97037.25;;;-7.90;90.82
52923;BME280;38796;42.702;23.306;2023-02-08T05:17:47;97032.13;;;-7.90;90.74
52923;BME280;38796;42.702;23.306;2023-02-08T05:19:46;97036.34;;;-7.93;90.74
52923;BME280;38796;42.702;23.306;2023-02-08T05:21:44;97038.00;;;-8.00;90.41
52923;BME280;38796;42.702;23.306;2023-02-08T05:23:43;97041.31;;;-8.04;90.89
52923;BME280;38796;42.702;23.306;2023-02-08T05:25:42;97038.75;;;-8.07;90.68
52923;BME280;38796;42.702;23.306;2023-02-08T05:27:42;97042.97;;;-8.09;91.09
52923;BME280;38796;42.702;23.306;2023-02-08T05:29:40;97038.69;;;-8.12;91.37
52923;BME280;38796;42.702;23.306;2023-02-08T05:31:39;97043.84;;;-8.09;91.46
52923;BME280;38796;42.702;23.306;2023-02-08T05:33:37;97042.09;;;-8.11;91.71
52923;BME280;38796;42.702;23.306;2023-02-08T05:35:35;97044.69;;;-8.08;91.68
52923;BME280;38796;42.702;23.306;2023-02-08T05:37:34;97055.75;;;-8.09;91.28
52923;BME280;38796;42.702;23.306;2023-02-08T05:39:32;97055.72;;;-8.14;91.60
52923;BME280;38796;42.702;23.306;2023-02-08T05:41:31;97047.19;;;-8.13;92.18
52923;BME280;38796;42.702;23.306;2023-02-08T05:43:30;97053.25;;;-8.06;91.93
52923;BME280;38796;42.702;23.306;2023-02-08T05:45:29;97056.66;;;-8.04;92.10
52923;BME280;38796;42.702;23.306;2023-02-08T05:47:27;97066.13;;;-7.99;91.61
52923;BME280;38796;42.702;23.306;2023-02-08T05:49:25;97061.91;;;-7.95;91.84
52923;BME280;38796;42.702;23.306;2023-02-08T05:51:24;97063.66;;;-7.91;91.49
52923;BME280;38796;42.702;23.306;2023-02-08T05:53:22;97065.47;;;-7.84;91.70
52923;BME280;38796;42.702;23.306;2023-02-08T05:55:20;97055.31;;;-7.78;91.18
52923;BME280;38796;42.702;23.306;2023-02-08T05:57:18;97067.41;;;-7.67;90.67
52923;BME280;38796;42.702;23.306;2023-02-08T05:59:18;97072.59;;;-7.58;89.69
52923;BME280;38796;42.702;23.306;2023-02-08T06:01:16;97062.63;;;-7.37;89.49
52923;BME280;38796;42.702;23.306;2023-02-08T06:03:15;97065.69;;;-6.88;88.60
52923;BME280;38796;42.702;23.306;2023-02-08T06:05:13;97063.63;;;-6.23;85.14
52923;BME280;38796;42.702;23.306;2023-02-08T06:07:12;97055.47;;;-5.34;82.25
52923;BME280;38796;42.702;23.306;2023-02-08T06:09:10;97053.88;;;-4.69;79.24
52923;BME280;38796;42.702;23.306;2023-02-08T06:11:08;97049.56;;;-4.27;76.84
52923;BME280;38796;42.702;23.306;2023-02-08T06:13:07;97048.50;;;-3.54;74.85
52923;BME280;38796;42.702;23.306;2023-02-08T06:15:07;97054.34;;;-3.15;72.55
52923;BME280;38796;42.702;23.306;2023-02-08T06:17:05;97053.31;;;-2.86;70.28
52923;BME280;38796;42.702;23.306;2023-02-08T06:19:04;97059.75;;;-2.27;68.62
52923;BME280;38796;42.702;23.306;2023-02-08T06:21:02;97057.81;;;-1.27;67.76
52923;BME280;38796;42.702;23.306;2023-02-08T06:23:01;97050.97;;;-0.66;62.55
52923;BME280;38796;42.702;23.306;2023-02-08T06:24:59;97047.44;;;-0.60;61.52
52923;BME280;38796;42.702;23.306;2023-02-08T06:26:57;97057.16;;;-1.42;62.52
52923;BME280;38796;42.702;23.306;2023-02-08T06:28:57;97061.34;;;-2.11;64.24
52923;BME280;38796;42.702;23.306;2023-02-08T06:30:57;97068.97;;;-2.00;64.71
52923;BME280;38796;42.702;23.306;2023-02-08T06:32:55;97069.47;;;-1.64;63.76
52923;BME280;38796;42.702;23.306;2023-02-08T06:34:54;97064.88;;;-1.41;62.37
52923;BME280;38796;42.702;23.306;2023-02-08T06:36:52;97071.50;;;-1.94;62.79
52923;BME280;38796;42.702;23.306;2023-02-08T06:38:51;97073.94;;;-2.83;65.67
52923;BME280;38796;42.702;23.306;2023-02-08T06:40:49;97065.13;;;-2.56;65.58
52923;BME280;38796;42.702;23.306;2023-02-08T06:42:47;97074.41;;;-2.31;64.73
52923;BME280;38796;42.702;23.306;2023-02-08T06:44:46;97081.97;;;-3.39;65.96
52923;BME280;38796;42.702;23.306;2023-02-08T06:46:52;97079.50;;;-3.81;68.11
52923;BME280;38796;42.702;23.306;2023-02-08T06:48:51;97082.16;;;-4.49;70.21
52923;BME280;38796;42.702;23.306;2023-02-08T06:50:50;97082.97;;;-3.98;69.94
52923;BME280;38796;42.702;23.306;2023-02-08T06:52:49;97081.06;;;-3.34;68.37
52923;BME280;38796;42.702;23.306;2023-02-08T06:54:47;97077.25;;;-2.68;66.13
52923;BME280;38796;42.702;23.306;2023-02-08T06:56:45;97077.69;;;-2.13;64.60
52923;BME280;38796;42.702;23.306;2023-02-08T06:58:44;97073.97;;;-1.80;62.42
52923;BME280;38796;42.702;23.306;2023-02-08T07:00:43;97081.50;;;-0.91;60.02
52923;BME280;38796;42.702;23.306;2023-02-08T07:02:43;97081.31;;;-0.77;59.28
52923;BME280;38796;42.702;23.306;2023-02-08T07:04:43;97077.75;;;-0.68;57.65
52923;BME280;38796;42.702;23.306;2023-02-08T07:06:42;97075.69;;;-0.46;57.09
52923;BME280;38796;42.702;23.306;2023-02-08T07:08:40;97080.09;;;-0.53;56.62
52923;BME280;38796;42.702;23.306;2023-02-08T07:10:39;97078.56;;;-0.65;56.87
52923;BME280;38796;42.702;23.306;2023-02-08T07:12:39;97090.00;;;-0.81;57.68
52923;BME280;38796;42.702;23.306;2023-02-08T07:14:39;97089.22;;;-0.88;57.61
52923;BME280;38796;42.702;23.306;2023-02-08T07:16:37;97082.03;;;-0.67;57.04
52923;BME280;38796;42.702;23.306;2023-02-08T07:18:37;97091.50;;;-0.66;56.67
52923;BME280;38796;42.702;23.306;2023-02-08T07:20:36;97102.09;;;-1.56;58.57
52923;BME280;38796;42.702;23.306;2023-02-08T07:22:34;97105.50;;;-2.45;59.75
52923;BME280;38796;42.702;23.306;2023-02-08T07:24:33;97117.00;;;-3.07;61.69
52923;BME280;38796;42.702;23.306;2023-02-08T07:26:32;97115.50;;;-3.66;62.67
52923;BME280;38796;42.702;23.306;2023-02-08T07:28:30;97119.00;;;-4.41;65.38
52923;BME280;38796;42.702;23.306;2023-02-08T07:30:29;97122.41;;;-4.68;67.10
52923;BME280;38796;42.702;23.306;2023-02-08T07:32:27;97125.78;;;-4.89;68.40
52923;BME280;38796;42.702;23.306;2023-02-08T07:34:28;97127.47;;;-4.91;68.81
52923;BME280;38796;42.702;23.306;2023-02-08T07:36:27;97118.06;;;-4.95;69.62
52923;BME280;38796;42.702;23.306;2023-02-08T07:38:26;97130.06;;;-4.97;69.86
52923;BME280;38796;42.702;23.306;2023-02-08T07:40:24;97127.44;;;-5.06;70.13
52923;BME280;38796;42.702;23.306;2023-02-08T07:42:23;97126.59;;;-5.02;70.79
52923;BME280;38796;42.702;23.306;2023-02-08T07:44:33;97128.38;;;-4.90;70.48
52923;BME280;38796;42.702;23.306;2023-02-08T07:46:32;97127.56;;;-4.45;70.02
52923;BME280;38796;42.702;23.306;2023-02-08T07:48:30;97131.00;;;-4.09;68.40
52923;BME280;38796;42.702;23.306;2023-02-08T07:50:33;97128.41;;;-3.78;67.64
52923;BME280;38796;42.702;23.306;2023-02-08T07:52:35;97123.25;;;-3.83;67.79
52923;BME280;38796;42.702;23.306;2023-02-08T07:54:33;97128.44;;;-4.03;68.33
52923;BME280;38796;42.702;23.306;2023-02-08T07:56:32;97133.59;;;-4.32;69.75
52923;BME280;38796;42.702;23.306;2023-02-08T07:58:31;97132.75;;;-4.32;70.45
52923;BME280;38796;42.702;23.306;2023-02-08T08:00:30;97130.16;;;-4.23;70.12
52923;BME280;38796;42.702;23.306;2023-02-08T08:02:28;97125.03;;;-4.17;70.14
52923;BME280;38796;42.702;23.306;2023-02-08T08:04:28;97121.50;;;-3.53;68.59
52923;BME280;38796;42.702;23.306;2023-02-08T08:06:28;97110.72;;;-1.57;63.38
52923;BME280;38796;42.702;23.306;2023-02-08T08:08:27;97110.47;;;0.86;55.81
52923;BME280;38796;42.702;23.306;2023-02-08T08:10:25;97102.19;;;1.51;52.03
52923;BME280;38796;42.702;23.306;2023-02-08T08:12:24;97096.78;;;2.64;48.47
52923;BME280;38796;42.702;23.306;2023-02-08T08:14:22;97089.78;;;2.66;46.63
52923;BME280;38796;42.702;23.306;2023-02-08T08:16:20;97094.16;;;2.95;46.78
52923;BME280;38796;42.702;23.306;2023-02-08T08:18:19;97091.00;;;3.15;45.78
52923;BME280;38796;42.702;23.306;2023-02-08T08:20:18;97100.81;;;3.05;46.34
52923;BME280;38796;42.702;23.306;2023-02-08T08:22:17;97088.28;;;3.48;45.32
52923;BME280;38796;42.702;23.306;2023-02-08T08:24:18;97101.97;;;4.61;42.18
52923;BME280;38796;42.702;23.306;2023-02-08T08:26:25;97100.91;;;5.15;41.85
52923;BME280;38796;42.702;23.306;2023-02-08T08:28:24;97098.13;;;4.47;42.76
52923;BME280;38796;42.702;23.306;2023-02-08T08:30:23;97105.47;;;5.55;39.89
52923;BME280;38796;42.702;23.306;2023-02-08T08:32:24;97098.81;;;5.01;41.18
52923;BME280;38796;42.702;23.306;2023-02-08T08:34:25;97100.25;;;5.10;40.80
52923;BME280;38796;42.702;23.306;2023-02-08T08:36:30;97107.63;;;4.73;41.37
52923;BME280;38796;42.702;23.306;2023-02-08T08:38:30;97106.84;;;5.20;40.30
52923;BME280;38796;42.702;23.306;2023-02-08T08:40:28;97107.66;;;5.89;38.77
52923;BME280;38796;42.702;23.306;2023-02-08T08:42:26;97107.00;;;6.28;37.79
52923;BME280;38796;42.702;23.306;2023-02-08T08:44:25;97098.44;;;7.25;36.58
52923;BME280;38796;42.702;23.306;2023-02-08T08:46:24;97101.06;;;6.65;36.79
52923;BME280;38796;42.702;23.306;2023-02-08T08:48:22;97107.50;;;7.37;35.90
52923;BME280;38796;42.702;23.306;2023-02-08T08:50:20;97105.63;;;6.81;36.05
52923;BME280;38796;42.702;23.306;2023-02-08T08:52:18;97102.34;;;6.55;36.13
52923;BME280;38796;42.702;23.306;2023-02-08T08:54:18;97113.03;;;6.08;37.05
52923;BME280;38796;42.702;23.306;2023-02-08T08:56:17;97113.19;;;5.82;37.80
52923;BME280;38796;42.702;23.306;2023-02-08T08:58:15;97114.22;;;5.77;38.16
52923;BME280;38796;42.702;23.306;2023-02-08T09:00:14;97116.22;;;5.47;39.09
52923;BME280;38796;42.702;23.306;2023-02-08T09:02:13;97109.75;;;5.58;38.68
52923;BME280;38796;42.702;23.306;2023-02-08T09:04:11;97118.22;;;6.10;38.17
52923;BME280;38796;42.702;23.306;2023-02-08T09:06:10;97125.44;;;5.79;36.85
52923;BME280;38796;42.702;23.306;2023-02-08T09:08:08;97118.19;;;6.72;35.65
52923;BME280;38796;42.702;23.306;2023-02-08T09:10:09;97114.41;;;7.00;35.21
52923;BME280;38796;42.702;23.306;2023-02-08T09:12:07;97121.84;;;7.28;34.91
52923;BME280;38796;42.702;23.306;2023-02-08T09:14:06;97124.06;;;6.78;35.30
52923;BME280;38796;42.702;23.306;2023-02-08T09:16:05;97130.53;;;5.61;37.50
52923;BME280;38796;42.702;23.306;2023-02-08T09:18:07;97128.47;;;5.69;38.02
52923;BME280;38796;42.702;23.306;2023-02-08T09:20:05;97123.84;;;6.41;36.32
52923;BME280;38796;42.702;23.306;2023-02-08T09:22:05;97128.13;;;6.44;37.30
52923;BME280;38796;42.702;23.306;2023-02-08T09:24:04;97128.75;;;5.16;37.32
52923;BME280;38796;42.702;23.306;2023-02-08T09:26:05;97122.16;;;4.30;40.48
52923;BME280;38796;42.702;23.306;2023-02-08T09:28:03;97134.78;;;4.16;40.79
52923;BME280;38796;42.702;23.306;2023-02-08T09:30:03;97140.28;;;4.60;39.51
52923;BME280;38796;42.702;23.306;2023-02-08T09:32:02;97129.34;;;4.49;40.50
52923;BME280;38796;42.702;23.306;2023-02-08T09:34:00;97136.97;;;5.52;38.51
52923;BME280;38796;42.702;23.306;2023-02-08T09:35:59;97130.22;;;6.36;36.94
52923;BME280;38796;42.702;23.306;2023-02-08T09:37:57;97135.47;;;6.77;35.34
52923;BME280;38796;42.702;23.306;2023-02-08T09:39:58;97130.03;;;6.81;34.83
52923;BME280;38796;42.702;23.306;2023-02-08T09:42:28;97134.81;;;6.51;34.88
52923;BME280;38796;42.702;23.306;2023-02-08T09:44:31;97119.75;;;6.77;34.97
52923;BME280;38796;42.702;23.306;2023-02-08T09:46:32;97121.88;;;6.68;35.04
52923;BME280;38796;42.702;23.306;2023-02-08T09:48:36;97110.59;;;7.64;33.44
52923;BME280;38796;42.702;23.306;2023-02-08T09:50:37;97111.72;;;7.20;34.54
52923;BME280;38796;42.702;23.306;2023-02-08T09:52:42;97106.88;;;8.06;33.21
52923;BME280;38796;42.702;23.306;2023-02-08T09:54:45;97111.69;;;8.51;31.75
52923;BME280;38796;42.702;23.306;2023-02-08T09:56:46;97107.09;;;7.65;32.39
52923;BME280;38796;42.702;23.306;2023-02-08T09:58:51;97110.25;;;6.94;33.57
52923;BME280;38796;42.702;23.306;2023-02-08T10:00:53;97113.84;;;7.12;34.15
52923;BME280;38796;42.702;23.306;2023-02-08T10:02:57;97107.81;;;7.86;32.64
52923;BME280;38796;42.702;23.306;2023-02-08T10:04:59;97105.28;;;8.21;32.34
52923;BME280;38796;42.702;23.306;2023-02-08T10:06:59;97100.97;;;8.19;31.42
52923;BME280;38796;42.702;23.306;2023-02-08T10:09:01;97106.50;;;6.18;33.93
52923;BME280;38796;42.702;23.306;2023-02-08T10:11:19;97110.25;;;3.67;39.00
52923;BME280;38796;42.702;23.306;2023-02-08T10:13:43;97109.47;;;3.06;40.79
52923;BME280;38796;42.702;23.306;2023-02-08T10:15:55;97104.75;;;2.58;43.18
52923;BME280;38796;42.702;23.306;2023-02-08T10:18:10;97109.44;;;2.76;42.61
52923;BME280;38796;42.702;23.306;2023-02-08T10:20:35;97111.91;;;2.50;41.68
52923;BME280;38796;42.702;23.306;2023-02-08T10:22:44;97113.91;;;0.86;44.24
52923;BME280;38796;42.702;23.306;2023-02-08T10:24:59;97118.88;;;-0.52;48.24
52923;BME280;38796;42.702;23.306;2023-02-08T10:27:05;97131.88;;;-1.24;50.80
52923;BME280;38796;42.702;23.306;2023-02-08T10:29:21;97116.78;;;-1.58;52.24
52923;BME280;38796;42.702;23.306;2023-02-08T10:31:35;97122.84;;;-1.62;53.49
52923;BME280;38796;42.702;23.306;2023-02-08T10:33:43;97119.16;;;-1.39;52.32
52923;BME280;38796;42.702;23.306;2023-02-08T10:35:52;97122.78;;;-1.59;53.46
52923;BME280;38796;42.702;23.306;2023-02-08T10:37:51;97128.91;;;-1.67;53.63
52923;BME280;38796;42.702;23.306;2023-02-08T10:40:02;97129.13;;;-1.90;54.06